Charlottetown, Prince Edward Island

6:07 AM AST on February 10, 2016 (GMT -0400)
Charlottetown | | Change Station
CLOSE
Current Station
Airport
Location: Charlottetown,
Elevation: 157 ft
Nearby Weather Stations

Elev 157 ft 46.29 °N, 63.13 °W | Updated 7 minutes ago

Light Snow Showers
Light Showers Snow
21 °F
Feels Like 9 °F
N
13
Wind Variable Wind from West

Today is forecast to be nearly the same temperature as yesterday.

Today
High -- | Low -- °F
--% Chance of Precip.
Yesterday
High -- | Low -- °F
Precip. -- in
Pressure 29.49 in
Visibility 12.0 miles
Clouds Mostly Cloudy 700 ft
Overcast 3800 ft
Windchill 9 °F
Dew Point 19 °F
Humidity 93%
Rainfall 0.00 in
Snow Depth Not available.
7:24 AM 5:30 PM
Waxing Crescent, 4% visible
METAR CYYG 101000Z 27011KT 12SM -SHSN BKN007 OVC038 M06/M07 A2947 RMK SF6SC2 SLP984
Pressure 29.49 in
Visibility 12.0 miles
Clouds Mostly Cloudy 700 ft
Overcast 3800 ft
Windchill 9 °F
Dew Point 19 °F
Humidity 93%
Rainfall 0.00 in
Snow Depth Not available.
7:24 AM 5:30 PM
Waxing Crescent, 4% visible
METAR CYYG 101000Z 27011KT 12SM -SHSN BKN007 OVC038 M06/M07 A2947 RMK SF6SC2 SLP984

10-Day Weather Forecast

No radar image for this location.
×

Almanac

Astronomy

Feb. 10, 2016 Rise Set
Actual Time
Civil Twilight
Nautical Twilight
Astronomical Twilight
Moon
Length of Visible Light
Length of Day
Tomorrow will be .
, % of the Moon is Illuminated

Today's Extremes

Country Highs Country Lows

Community

WunderPhotos

Upload Photos

1,891,828 photos uploaded!

WunderBlog® & News

Nearby

Air Quality

  Air Quality AQ Index Pollutant
Not available.

Snow Depth

Station Depth Elevation

Earthquake Activity

City Distance Mag. Time & Date
Minimum magnitude displayed is 2.5.

Coastal Water Temperatures

Place Temperature

Stations

Nearby Weather Stations

Station Location Temp. Windchill Dew Point Humidity Wind Precip. Elev Updated Type
                   

Watches & Warnings

There are currently no watches in effect.